.
WxDataArchive / Data Records for 2006-05-24
2006-05-23 May 2006 2006-05-25

Data Records for Wednesday, 24 May 2006

Time	Temp	Chill	HIndex	Humid	Dewpt	 Wind 	HiWind	WindDir	Rain 	Barom 
-----	----	-----	------	-----	-----	------	------	-------	-----	----- 
00:00	50.7	50.7	50.7	70	41.3	0	0	---	0.00	30.077 
00:05	50.5	50.5	50.5	71	41.5	0	0	---	0.00	30.077 
00:10	50.5	50.5	50.5	71	41.5	0	0	---	0.00	30.077 
00:15	50.4	50.4	50.4	71	41.4	0	0	---	0.00	30.070 
00:20	50.2	50.2	50.2	71	41.2	0	0	---	0.00	30.070 
00:25	50.2	50.2	50.2	71	41.2	0	0	---	0.00	30.070 
00:30	49.9	49.9	49.9	71	40.9	0	0	---	0.00	30.065 
00:35	49.8	49.8	49.8	72	41.1	0	0	---	0.00	30.065 
00:40	49.6	49.6	49.6	72	40.9	0	0	---	0.00	30.065 
00:45	49.4	49.4	49.4	72	40.8	0	0	---	0.00	30.067 
00:50	49.2	49.2	49.2	72	40.6	0	0	---	0.00	30.067 
00:55	49.2	49.2	49.2	72	40.6	0	0	---	0.00	30.067 
01:00	49.1	49.1	49.1	73	40.8	0	0	---	0.00	30.068 
01:05	48.9	48.9	48.9	72	40.3	0	0	---	0.00	30.068 
01:10	48.8	48.8	48.8	73	40.5	0	0	---	0.00	30.068 
01:15	48.6	48.6	48.6	73	40.3	0	0	---	0.00	30.063 
01:20	48.6	48.6	48.6	75	41.0	0	0	---	0.00	30.063 
01:25	48.8	48.8	48.8	74	40.9	0	0	---	0.00	30.063 
01:30	48.6	48.6	48.6	74	40.7	0	0	---	0.00	30.067 
01:35	48.6	48.6	48.6	73	40.3	0	0	---	0.00	30.067 
01:40	48.3	48.3	48.3	73	40.1	0	0	---	0.00	30.067 
01:45	48.2	48.2	48.2	73	40.0	0	0	---	0.00	30.069 
01:50	48.0	48.0	48.0	74	40.1	0	0	---	0.00	30.069 
01:55	48.0	48.0	48.0	74	40.1	0	0	---	0.00	30.069 
02:00	48.0	48.0	48.0	74	40.1	0	0	---	0.00	30.064 
02:05	48.0	48.0	48.0	75	40.5	0	0	---	0.00	30.064 
02:10	47.9	47.9	47.9	76	40.7	0	0	---	0.00	30.064 
02:15	47.7	47.7	47.7	76	40.5	0	0	---	0.00	30.061 
02:20	47.6	47.6	47.6	76	40.4	0	0	---	0.00	30.061 
02:25	47.4	47.4	47.4	76	40.2	0	0	---	0.00	30.061 
02:30	47.4	47.4	47.4	75	39.9	0	0	---	0.00	30.058 
02:35	47.3	47.3	47.3	74	39.4	0	0	---	0.00	30.058 
02:40	47.4	47.4	47.4	75	39.9	0	0	---	0.00	30.058 
02:45	47.4	47.4	47.4	75	39.9	0	0	---	0.00	30.059 
02:50	47.3	47.3	47.3	76	40.1	0	0	---	0.00	30.059 
02:55	47.1	47.1	47.1	75	39.6	0	0	---	0.00	30.059 
03:00	47.0	47.0	47.0	76	39.8	0	0	---	0.00	30.055 
03:05	46.8	46.8	46.8	77	40.0	0	0	---	0.00	30.055 
03:10	46.5	46.5	46.5	77	39.7	0	0	---	0.00	30.055 
03:15	46.4	46.4	46.4	77	39.6	0	0	---	0.00	30.051 
03:20	46.2	46.2	46.2	77	39.4	0	0	---	0.00	30.051 
03:25	46.1	46.1	46.1	78	39.6	0	0	---	0.00	30.051 
03:30	46.0	46.0	46.0	78	39.5	0	0	---	0.00	30.048 
03:35	45.8	45.8	45.8	77	39.0	0	0	---	0.00	30.048 
03:40	45.7	45.7	45.7	77	38.9	0	0	---	0.00	30.048 
03:45	45.5	45.5	45.5	78	39.0	0	0	---	0.00	30.048 
03:50	45.5	45.5	45.5	78	39.0	0	0	---	0.00	30.048 
03:55	45.4	45.4	45.4	78	38.9	0	0	---	0.00	30.048 
04:00	45.4	45.4	45.4	79	39.3	0	0	---	0.00	30.047 
04:05	45.2	45.2	45.2	79	39.1	0	0	---	0.00	30.047 
04:10	45.2	45.2	45.2	79	39.1	0	0	---	0.00	30.047 
04:15	45.1	45.1	45.1	80	39.3	0	0	---	0.00	30.044 
04:20	44.9	44.9	44.9	80	39.1	0	0	---	0.00	30.044 
04:25	44.9	44.9	44.9	80	39.1	0	0	---	0.00	30.044 
04:30	44.8	44.8	44.8	80	39.0	0	0	---	0.00	30.046 
04:35	44.8	44.8	44.8	81	39.3	0	0	---	0.00	30.046 
04:40	44.6	44.6	44.6	81	39.1	0	0	---	0.00	30.046 
04:45	44.6	44.6	44.6	81	39.1	0	0	---	0.00	30.048 
04:50	44.5	44.5	44.5	81	39.0	0	0	---	0.00	30.048 
04:55	44.3	44.3	44.3	80	38.5	0	0	---	0.00	30.048 
05:00	44.2	44.2	44.2	80	38.4	0	0	---	0.00	30.050 
05:05	44.1	44.1	44.1	81	38.6	0	0	---	0.00	30.050 
05:10	43.9	43.9	43.9	82	38.8	0	0	---	0.00	30.050 
05:15	43.8	43.8	43.8	82	38.7	0	0	---	0.00	30.053 
05:20	43.8	43.8	43.8	82	38.7	0	0	---	0.00	30.053 
05:25	43.8	43.8	43.8	83	39.0	0	0	---	0.00	30.053 
05:30	43.8	43.8	43.8	83	39.0	0	0	---	0.00	30.051 
05:35	43.6	43.6	43.6	82	38.5	0	0	---	0.00	30.051 
05:40	43.6	43.6	43.6	83	38.8	0	0	---	0.00	30.051 
05:45	43.5	43.5	43.5	83	38.7	0	0	---	0.00	30.053 
05:50	43.3	43.3	43.3	83	38.5	0	0	---	0.00	30.053 
05:55	43.2	43.2	43.2	84	38.7	0	0	---	0.00	30.053 
06:00	43.1	43.1	43.1	84	38.6	0	0	---	0.00	30.052 
06:05	43.1	43.1	43.1	84	38.6	0	0	---	0.00	30.052 
06:10	43.1	43.1	43.1	84	38.6	0	0	---	0.00	30.052 
06:15	43.1	43.1	43.1	86	39.2	0	0	---	0.00	30.053 
06:20	43.1	43.1	43.1	87	39.5	0	0	---	0.00	30.053 
06:25	43.1	43.1	43.1	88	39.8	0	0	---	0.00	30.053 
06:30	43.1	43.1	43.1	88	39.8	0	0	---	0.00	30.053 
06:35	43.1	43.1	43.1	88	39.8	0	0	---	0.00	30.053 
06:40	43.2	43.2	43.2	88	39.9	0	0	---	0.00	30.053 
06:45	43.3	43.3	43.3	88	40.0	0	0	---	0.00	30.052 
06:50	43.5	43.5	43.5	88	40.2	0	0	---	0.00	30.052 
06:55	43.6	43.6	43.6	88	40.3	0	0	---	0.00	30.052 
07:00	43.8	43.8	43.8	88	40.5	0	0	---	0.00	30.049 
07:05	43.9	43.9	43.9	87	40.3	0	0	---	0.00	30.049 
07:10	44.1	44.1	44.1	86	40.2	0	0	---	0.00	30.049 
07:15	44.5	44.5	44.5	84	40.0	0	0	---	0.00	30.057 
07:20	45.1	45.1	45.1	83	40.3	0	0	---	0.00	30.057 
07:25	45.8	45.8	45.8	83	40.9	0	0	---	0.00	30.057 
07:30	47.1	47.1	47.1	79	40.9	0	0	---	0.00	30.062 
07:35	48.2	48.2	48.2	77	41.3	0	0	---	0.00	30.062 
07:40	49.4	49.4	49.4	73	41.1	0	1	248	0.00	30.062 
07:45	50.8	50.8	50.8	65	39.5	0	2	248	0.00	30.050 
07:50	52.3	52.3	52.3	64	40.5	1	2	135	0.00	30.050 
07:55	53.8	53.8	53.8	62	41.1	1	3	112	0.00	30.050 
08:00	55.1	55.1	55.1	63	42.7	0	2	112	0.00	30.042 
08:05	56.2	56.2	56.2	57	41.2	0	2	112	0.00	30.042 
08:10	57.0	57.0	57.0	57	41.9	0	2	112	0.00	30.042 
08:15	58.0	58.0	58.0	57	42.9	1	3	112	0.00	30.051 
08:20	58.4	58.4	58.4	54	41.8	1	3	112	0.00	30.051 
08:25	59.0	59.0	59.0	55	42.9	0	2	112	0.00	30.051 
08:30	59.2	59.2	59.2	54	42.6	1	5	112	0.00	30.053 
08:35	59.2	59.2	59.2	53	42.1	1	3	270	0.00	30.053 
08:40	59.8	59.8	59.8	52	42.1	1	4	248	0.00	30.053 
08:45	60.2	60.2	60.2	50	41.5	1	3	248	0.00	30.051 
08:50	60.9	60.9	60.9	49	41.6	1	4	248	0.00	30.051 
08:55	61.3	61.3	61.3	51	43.0	1	4	248	0.00	30.051 
09:00	62.0	62.0	62.0	48	42.1	2	5	248	0.00	30.052 
09:05	62.6	62.6	62.6	50	43.7	1	4	248	0.00	30.052 
09:10	63.2	63.2	63.2	44	40.9	2	5	248	0.00	30.052 
09:15	63.7	63.7	63.7	46	42.5	2	6	270	0.00	30.044 
09:20	64.3	64.3	64.3	46	43.1	1	4	248	0.00	30.044 
09:25	64.8	64.8	64.8	46	43.5	2	6	270	0.00	30.044 
09:30	65.2	65.2	65.2	46	43.9	1	4	248	0.00	30.041 
09:35	65.5	65.5	65.5	43	42.4	2	5	248	0.00	30.041 
09:40	65.8	65.8	65.8	42	42.1	2	4	270	0.00	30.041 
09:45	66.3	66.3	66.3	43	43.1	1	4	270	0.00	30.038 
09:50	66.9	66.9	66.9	44	44.3	1	3	248	0.00	30.038 
09:55	67.1	67.1	67.1	41	42.6	2	4	248	0.00	30.038 
10:00	67.3	67.3	67.3	44	44.6	1	3	270	0.00	30.031 
10:05	68.1	68.1	68.1	42	44.1	2	7	90	0.00	30.031 
10:10	68.6	68.6	68.6	44	45.8	1	4	68	0.00	30.031 
10:15	69.1	69.1	69.1	39	43.1	2	9	112	0.00	30.041 
10:20	69.4	69.4	69.4	43	45.9	1	3	112	0.00	30.041 
10:25	69.6	69.6	69.6	39	43.5	2	4	248	0.00	30.041 
10:30	69.1	69.1	69.1	38	42.4	3	6	270	0.00	30.052 
10:35	68.9	68.9	68.9	36	40.8	3	7	270	0.00	30.052 
10:40	69.1	69.1	69.1	39	43.1	3	6	270	0.00	30.052 
10:45	69.3	69.3	69.3	38	42.6	3	5	248	0.00	30.047 
10:50	69.6	69.6	69.6	39	43.5	2	7	248	0.00	30.047 
10:55	69.6	69.6	69.6	38	42.9	2	7	270	0.00	30.047 
11:00	70.1	70.1	70.1	37	42.6	2	5	248	0.00	30.044 
11:05	70.9	70.9	70.9	39	44.7	1	4	248	0.00	30.044 
11:10	71.1	71.1	71.1	35	42.0	2	5	248	0.00	30.044 
11:15	71.1	71.1	71.1	35	42.0	2	5	248	0.00	30.043 
11:20	70.8	70.8	70.8	35	41.8	3	6	248	0.00	30.043 
11:25	71.1	71.1	71.1	37	43.5	2	5	90	0.00	30.043 
11:30	70.9	70.9	70.9	39	44.7	3	5	248	0.00	30.040 
11:35	71.6	71.6	71.6	41	46.6	2	5	90	0.00	30.040 
11:40	72.1	72.1	72.1	37	44.4	3	6	90	0.00	30.040 
11:45	72.7	72.7	72.7	35	43.5	1	4	45	0.00	30.029 
11:50	73.2	73.2	73.2	38	46.1	1	6	248	0.00	30.029 
11:55	73.5	73.5	73.5	36	44.9	2	5	90	0.00	30.029 
12:00	73.9	73.9	73.9	35	44.5	2	7	90	0.00	30.022 
12:05	74.0	74.0	74.0	33	43.1	2	5	248	0.00	30.022 
12:10	74.0	74.0	74.0	33	43.1	2	5	68	0.00	30.022 
12:15	73.9	73.9	73.9	31	41.3	2	6	68	0.00	30.020 
12:20	74.0	74.0	74.0	35	44.6	2	5	68	0.00	30.020 
12:25	74.4	74.4	74.4	33	43.4	3	6	248	0.00	30.020 
12:30	74.4	74.4	74.4	35	44.9	3	6	248	0.00	30.015 
12:35	74.6	74.6	74.6	33	43.6	2	5	248	0.00	30.015 
12:40	74.4	74.4	74.4	31	41.8	2	5	270	0.00	30.015 
12:45	74.2	74.2	74.2	33	43.2	2	5	90	0.00	30.010 
12:50	74.2	74.2	74.2	34	44.0	2	5	225	0.00	30.010 
12:55	74.2	74.2	74.2	31	41.6	2	6	248	0.00	30.010 
13:00	74.4	74.4	74.4	31	41.8	2	4	112	0.00	30.008 
13:05	74.4	74.4	74.4	32	42.6	3	6	270	0.00	30.008 
13:10	74.0	74.0	74.0	29	39.7	3	7	248	0.00	30.008 
13:15	74.6	74.6	74.6	33	43.6	2	4	270	0.00	29.996 
13:20	74.9	74.9	74.9	32	43.0	2	5	270	0.00	29.996 
13:25	75.1	75.1	77.1	32	43.2	2	4	248	0.00	29.996 
13:30	75.3	75.3	77.0	29	40.8	2	5	112	0.00	29.992 
13:35	75.3	75.3	77.1	31	42.6	2	6	248	0.00	29.992 
13:40	74.9	74.9	74.9	27	38.7	3	7	248	0.00	29.992 
13:45	74.7	74.7	74.7	33	43.7	2	5	248	0.00	29.981 
13:50	74.6	74.6	74.6	31	42.0	2	6	270	0.00	29.981 
13:55	74.7	74.7	74.7	31	42.0	2	5	68	0.00	29.981 
14:00	75.1	75.1	77.3	35	45.6	1	5	68	0.00	29.976 
14:05	75.6	75.6	77.6	38	48.2	1	7	68	0.00	29.976 
14:10	75.3	75.3	77.0	29	40.8	2	5	112	0.00	29.976 
14:15	74.6	74.6	74.6	29	40.2	2	5	270	0.00	29.964 
14:20	73.9	73.9	73.9	31	41.3	2	6	112	0.00	29.964 
14:25	73.2	73.2	73.2	32	41.6	1	3	270	0.00	29.964 
14:30	72.8	72.8	72.8	33	42.0	2	6	248	0.00	29.958 
14:35	72.3	72.3	72.3	35	43.1	1	4	248	0.00	29.958 
14:40	72.1	72.1	72.1	37	44.4	2	4	90	0.00	29.958 
14:45	72.0	72.0	72.0	32	40.5	2	5	90	0.00	29.934 
14:50	72.1	72.1	72.1	32	40.6	2	5	112	0.00	29.934 
14:55	72.3	72.3	72.3	35	43.1	1	4	292	0.00	29.934 
15:00	72.5	72.5	72.5	35	43.3	1	5	90	0.00	29.919 
15:05	72.7	72.7	72.7	32	41.1	2	7	90	0.00	29.919 
15:10	73.2	73.2	73.2	34	43.1	2	5	90	0.00	29.919 
15:15	73.5	73.5	73.5	34	43.4	3	9	90	0.00	29.905 
15:20	74.0	74.0	74.0	34	43.8	3	10	90	0.00	29.905 
15:25	74.4	74.4	74.4	36	45.7	3	9	90	0.00	29.905 
15:30	74.9	74.9	74.9	31	42.2	3	12	270	0.00	29.903 
15:35	75.1	75.1	77.0	31	42.4	4	12	248	0.00	29.903 
15:40	75.1	75.1	77.0	31	42.4	3	10	248	0.00	29.903 
15:45	75.1	75.1	77.1	32	43.2	2	5	112	0.00	29.908 
15:50	75.1	75.1	77.0	31	42.4	2	4	292	0.00	29.908 
15:55	74.6	74.6	74.6	29	40.2	3	7	248	0.00	29.908 
16:00	74.9	74.9	74.9	33	43.8	2	5	248	0.00	29.902 
16:05	75.8	75.8	77.3	31	43.0	2	6	315	0.00	29.902 
16:10	76.5	76.5	77.7	33	45.2	2	7	292	0.00	29.902 
16:15	76.8	76.8	77.7	31	43.9	2	5	270	0.00	29.898 
16:20	77.2	77.2	77.9	32	45.0	1	7	270	0.00	29.898 
16:25	77.2	77.2	77.6	28	41.6	3	6	270	0.00	29.898 
16:30	76.5	76.5	77.3	28	41.0	2	10	248	0.00	29.900 
16:35	76.1	76.1	77.2	29	41.5	2	6	248	0.00	29.900 
16:40	76.3	76.3	77.2	28	40.8	3	8	248	0.00	29.900 
16:45	76.3	76.3	77.2	27	39.8	3	6	270	0.00	29.902 
16:50	76.3	76.3	77.2	28	40.8	3	9	248	0.00	29.902 
16:55	75.8	75.8	77.1	28	40.4	2	6	270	0.00	29.902 
17:00	75.1	75.1	76.9	29	40.7	1	5	248	0.00	29.893 
17:05	74.9	74.9	74.9	28	39.6	1	5	248	0.00	29.893 
17:10	74.7	74.7	74.7	31	42.0	1	3	248	0.00	29.893 
17:15	74.7	74.7	74.7	30	41.2	1	3	248	0.00	29.887 
17:20	74.9	74.9	74.9	31	42.2	0	3	22	0.00	29.887 
17:25	74.7	74.7	74.7	35	45.2	0	2	338	0.00	29.887 
17:30	74.6	74.6	74.6	32	42.8	1	6	112	0.00	29.884 
17:35	74.4	74.4	74.4	31	41.8	2	5	90	0.01	29.884 
17:40	71.8	71.8	71.8	54	54.2	0	2	338	0.03	29.884 
17:45	69.3	69.3	69.3	62	55.7	0	6	90	0.00	29.871 
17:50	68.4	68.4	68.4	60	54.0	1	6	90	0.00	29.871 
17:55	68.6	68.6	68.6	60	54.1	0	3	90	0.00	29.871 
18:00	69.3	69.3	69.3	52	50.9	1	3	90	0.00	29.863 
18:05	70.3	70.3	70.3	56	53.8	2	8	248	0.00	29.863 
18:10	70.4	70.4	70.4	53	52.4	2	6	270	0.00	29.863 
18:15	70.8	70.8	70.8	49	50.7	1	4	22	0.00	29.864 
18:20	70.8	70.8	70.8	47	49.6	2	4	90	0.00	29.864 
18:25	70.6	70.6	70.6	48	49.9	2	3	90	0.00	29.864 
18:30	70.4	70.4	70.4	47	49.2	1	4	90	0.00	29.853 
18:35	70.3	70.3	70.3	49	50.2	1	3	112	0.00	29.853 
18:40	70.4	70.4	70.4	48	49.8	1	4	90	0.00	29.853 
18:45	70.4	70.4	70.4	49	50.3	1	3	90	0.00	29.837 
18:50	70.6	70.6	70.6	48	49.9	1	3	112	0.00	29.837 
18:55	70.4	70.4	70.4	48	49.8	1	2	90	0.00	29.837 
19:00	70.4	70.4	70.4	46	48.6	1	3	112	0.00	29.828 
19:05	70.6	70.6	70.6	48	49.9	1	3	112	0.00	29.828 
19:10	70.8	70.8	70.8	45	48.4	1	3	112	0.00	29.828 
19:15	70.9	70.9	70.9	46	49.1	1	3	90	0.00	29.817 
19:20	70.9	70.9	70.9	46	49.1	1	3	112	0.00	29.817 
19:25	70.8	70.8	70.8	45	48.4	1	2	112	0.00	29.817 
19:30	70.8	70.8	70.8	46	49.0	0	1	22	0.00	29.821 
19:35	70.6	70.6	70.6	49	50.5	0	1	68	0.00	29.821 
19:40	70.1	70.1	70.1	50	50.6	0	1	68	0.00	29.821 
19:45	69.1	69.1	69.1	52	50.7	1	3	292	0.00	29.847 
19:50	68.3	68.3	68.3	55	51.5	1	5	315	0.00	29.847 
19:55	67.9	67.9	67.9	56	51.6	2	4	68	0.00	29.847 
20:00	67.6	67.6	67.6	56	51.3	2	6	68	0.00	29.827 
20:05	67.3	67.3	67.3	57	51.5	2	5	90	0.00	29.827 
20:10	67.1	67.1	67.1	57	51.3	1	3	112	0.00	29.827 
20:15	66.8	66.8	66.8	58	51.5	1	4	90	0.00	29.800 
20:20	66.9	66.9	66.9	56	50.7	2	5	112	0.00	29.800 
20:25	67.3	67.3	67.3	55	50.6	2	4	90	0.00	29.800 
20:30	67.4	67.4	67.4	55	50.7	1	3	112	0.00	29.803 
20:35	67.3	67.3	67.3	56	51.1	0	0	---	0.00	29.803 
20:40	67.1	67.1	67.1	57	51.3	0	0	---	0.00	29.803 
20:45	66.9	66.9	66.9	57	51.2	0	1	112	0.00	29.816 
20:50	66.8	66.8	66.8	57	51.1	0	3	112	0.00	29.816 
20:55	66.4	66.4	66.4	62	53.0	0	1	112	0.00	29.816 
21:00	66.0	66.0	66.0	62	52.6	0	1	112	0.00	29.813 
21:05	65.6	65.6	65.6	63	52.7	0	2	112	0.00	29.813 
21:10	65.5	65.5	65.5	62	52.1	0	2	112	0.00	29.813 
21:15	65.3	65.3	65.3	63	52.4	0	1	112	0.00	29.826 
21:20	65.3	65.3	65.3	64	52.8	0	1	112	0.01	29.826 
21:25	65.0	65.0	65.0	67	53.8	0	1	112	0.00	29.826 
21:30	64.7	64.7	64.7	68	53.9	0	1	112	0.00	29.841 
21:35	63.7	63.7	63.7	71	54.1	2	3	248	0.00	29.841 
21:40	63.5	63.5	63.5	73	54.7	3	11	248	0.00	29.841 
21:45	63.5	63.5	63.5	77	56.2	3	8	248	0.01	29.843 
21:50	63.4	63.4	63.4	78	56.4	3	7	248	0.00	29.843 
21:55	63.1	63.1	63.1	80	56.8	2	4	248	0.00	29.843 
22:00	62.6	62.6	62.6	82	57.0	2	5	248	0.01	29.823 
22:05	62.1	62.1	62.1	85	57.5	1	4	248	0.02	29.823 
22:10	61.6	61.6	61.6	87	57.7	1	3	338	0.02	29.823 
22:15	61.3	61.3	61.3	88	57.7	2	5	112	0.01	29.795 
22:20	61.2	61.2	61.2	89	57.9	2	5	90	0.01	29.795 
22:25	61.0	61.0	61.0	90	58.0	1	3	90	0.01	29.795 
22:30	60.9	60.9	60.9	91	58.3	1	4	90	0.00	29.774 
22:35	60.9	60.9	60.9	91	58.3	3	9	90	0.00	29.774 
22:40	60.9	60.9	60.9	91	58.3	3	8	90	0.00	29.774 
22:45	60.9	60.9	60.9	91	58.3	3	5	90	0.00	29.734 
22:50	60.9	60.9	60.9	92	58.6	3	6	90	0.00	29.734 
22:55	61.0	61.0	61.0	91	58.4	2	7	112	0.00	29.734 
23:00	61.0	61.0	61.0	91	58.4	2	4	90	0.00	29.725 
23:05	61.2	61.2	61.2	90	58.2	2	5	90	0.00	29.725 
23:10	61.3	61.3	61.3	89	58.0	2	7	90	0.00	29.725 
23:15	61.5	61.5	61.5	88	57.9	1	4	90	0.00	29.729 
23:20	61.5	61.5	61.5	89	58.2	1	3	248	0.00	29.729 
23:25	61.3	61.3	61.3	89	58.0	1	3	270	0.00	29.729 
23:30	61.3	61.3	61.3	89	58.0	0	1	270	0.00	29.741 
23:35	61.3	61.3	61.3	89	58.0	0	1	270	0.00	29.741 
23:40	61.2	61.2	61.2	90	58.2	0	1	270	0.00	29.741 
23:45	61.2	61.2	61.2	90	58.2	0	0	---	0.00	29.747 
23:50	61.0	61.0	61.0	90	58.0	0	0	---	0.00	29.747 
23:55	60.9	60.9	60.9	91	58.3	0	0	---	0.00	29.747 

CoCoRaHS
IN-AL-39
A2 Web Hosting
Creative Commons License
GoDaddy
Look for:

loaded 2017-12-12 14:52:48 • last modified 2010-11-18 10:43:29
Privacy PolicyDisclaimer
• wx.awcolley.com is powered by PmWiki v.2002016 •
• all content (unless otherwise noted) © 2017 A W Colley